sensor_id;sensor_type;location;lat;lon;timestamp;temperature;humidity
12634;DHT22;6382;48.614;8.880;2023-04-06T00:02:17;-0.70;99.90
12634;DHT22;6382;48.614;8.880;2023-04-06T00:04:43;-0.70;99.90
12634;DHT22;6382;48.614;8.880;2023-04-06T00:07:10;-0.70;99.90
12634;DHT22;6382;48.614;8.880;2023-04-06T00:09:37;-0.70;99.90
12634;DHT22;6382;48.614;8.880;2023-04-06T00:12:03;-0.70;99.90
12634;DHT22;6382;48.614;8.880;2023-04-06T00:14:30;-0.50;99.90
12634;DHT22;6382;48.614;8.880;2023-04-06T00:16:57;-0.40;99.90
12634;DHT22;6382;48.614;8.880;2023-04-06T00:19:26;-0.30;99.90
12634;DHT22;6382;48.614;8.880;2023-04-06T00:21:52;-0.30;99.90
12634;DHT22;6382;48.614;8.880;2023-04-06T00:24:19;-0.30;99.90
12634;DHT22;6382;48.614;8.880;2023-04-06T00:26:46;-0.40;99.90
12634;DHT22;6382;48.614;8.880;2023-04-06T00:29:13;-0.50;99.90
12634;DHT22;6382;48.614;8.880;2023-04-06T00:31:40;-0.60;99.90
12634;DHT22;6382;48.614;8.880;2023-04-06T00:34:07;-0.70;99.90
12634;DHT22;6382;48.614;8.880;2023-04-06T00:36:34;-0.70;99.90
12634;DHT22;6382;48.614;8.880;2023-04-06T00:39:01;1.10;99.90
12634;DHT22;6382;48.614;8.880;2023-04-06T00:41:28;-0.80;99.90
12634;DHT22;6382;48.614;8.880;2023-04-06T00:43:54;-0.80;99.90
12634;DHT22;6382;48.614;8.880;2023-04-06T00:46:21;-0.90;99.90
12634;DHT22;6382;48.614;8.880;2023-04-06T00:48:48;-0.90;99.90
12634;DHT22;6382;48.614;8.880;2023-04-06T00:51:15;-0.90;99.90
12634;DHT22;6382;48.614;8.880;2023-04-06T00:53:41;-1.00;99.90
12634;DHT22;6382;48.614;8.880;2023-04-06T00:56:08;-1.00;99.90
12634;DHT22;6382;48.614;8.880;2023-04-06T00:58:36;-1.00;99.90
12634;DHT22;6382;48.614;8.880;2023-04-06T01:01:07;-1.00;99.90
12634;DHT22;6382;48.614;8.880;2023-04-06T01:03:34;-0.90;99.90
12634;DHT22;6382;48.614;8.880;2023-04-06T01:06:01;-0.90;99.90
12634;DHT22;6382;48.614;8.880;2023-04-06T01:08:27;-0.90;99.90
12634;DHT22;6382;48.614;8.880;2023-04-06T01:10:55;-0.90;99.90
12634;DHT22;6382;48.614;8.880;2023-04-06T01:13:22;-1.00;99.90
12634;DHT22;6382;48.614;8.880;2023-04-06T01:15:49;1.00;99.90
12634;DHT22;6382;48.614;8.880;2023-04-06T01:18:16;-1.10;99.90
12634;DHT22;6382;48.614;8.880;2023-04-06T01:20:42;-1.10;99.90
12634;DHT22;6382;48.614;8.880;2023-04-06T01:23:09;-1.10;99.90
12634;DHT22;6382;48.614;8.880;2023-04-06T01:25:36;-0.40;99.90
12634;DHT22;6382;48.614;8.880;2023-04-06T01:28:03;0.20;99.90
12634;DHT22;6382;48.614;8.880;2023-04-06T01:30:30;-0.90;99.90
12634;DHT22;6382;48.614;8.880;2023-04-06T01:32:56;-0.80;99.90
12634;DHT22;6382;48.614;8.880;2023-04-06T01:35:27;-0.90;99.90
12634;DHT22;6382;48.614;8.880;2023-04-06T01:37:54;-0.80;99.90
12634;DHT22;6382;48.614;8.880;2023-04-06T01:40:21;-0.80;99.90
12634;DHT22;6382;48.614;8.880;2023-04-06T01:42:48;-0.80;99.90
12634;DHT22;6382;48.614;8.880;2023-04-06T01:45:15;0.20;99.90
12634;DHT22;6382;48.614;8.880;2023-04-06T01:47:42;-0.80;99.90
12634;DHT22;6382;48.614;8.880;2023-04-06T01:50:09;-0.80;99.90
12634;DHT22;6382;48.614;8.880;2023-04-06T01:52:35;-0.70;99.90
12634;DHT22;6382;48.614;8.880;2023-04-06T01:55:02;-0.70;99.90
12634;DHT22;6382;48.614;8.880;2023-04-06T01:57:29;-0.70;99.90
12634;DHT22;6382;48.614;8.880;2023-04-06T01:59:56;-0.60;99.90
12634;DHT22;6382;48.614;8.880;2023-04-06T02:02:22;-0.60;99.90
12634;DHT22;6382;48.614;8.880;2023-04-06T02:04:49;-0.70;99.90
12634;DHT22;6382;48.614;8.880;2023-04-06T02:07:16;-0.60;99.90
12634;DHT22;6382;48.614;8.880;2023-04-06T02:09:43;-0.80;99.90
12634;DHT22;6382;48.614;8.880;2023-04-06T02:12:09;-0.90;99.90
12634;DHT22;6382;48.614;8.880;2023-04-06T02:14:36;-0.90;99.90
12634;DHT22;6382;48.614;8.880;2023-04-06T02:17:03;-0.90;99.90
12634;DHT22;6382;48.614;8.880;2023-04-06T02:19:30;-1.00;99.90
12634;DHT22;6382;48.614;8.880;2023-04-06T02:21:56;-1.00;99.90
12634;DHT22;6382;48.614;8.880;2023-04-06T02:24:23;-1.00;99.90
12634;DHT22;6382;48.614;8.880;2023-04-06T02:26:50;-0.90;99.90
12634;DHT22;6382;48.614;8.880;2023-04-06T02:29:17;-0.90;99.90
12634;DHT22;6382;48.614;8.880;2023-04-06T02:31:44;-0.80;99.90
12634;DHT22;6382;48.614;8.880;2023-04-06T02:34:11;-0.90;99.90
12634;DHT22;6382;48.614;8.880;2023-04-06T02:36:47;-0.80;99.90
12634;DHT22;6382;48.614;8.880;2023-04-06T02:39:13;-0.90;99.90
12634;DHT22;6382;48.614;8.880;2023-04-06T02:41:40;-0.60;99.90
12634;DHT22;6382;48.614;8.880;2023-04-06T02:44:07;-0.80;99.90
12634;DHT22;6382;48.614;8.880;2023-04-06T02:46:35;-0.70;99.90
12634;DHT22;6382;48.614;8.880;2023-04-06T02:49:01;-0.70;99.90
12634;DHT22;6382;48.614;8.880;2023-04-06T02:51:28;-0.70;99.90
12634;DHT22;6382;48.614;8.880;2023-04-06T02:53:55;-0.70;99.90
12634;DHT22;6382;48.614;8.880;2023-04-06T02:56:21;-0.70;99.90
12634;DHT22;6382;48.614;8.880;2023-04-06T02:58:48;-0.80;99.90
12634;DHT22;6382;48.614;8.880;2023-04-06T03:01:15;-0.90;99.90
12634;DHT22;6382;48.614;8.880;2023-04-06T03:03:42;-0.90;99.90
12634;DHT22;6382;48.614;8.880;2023-04-06T03:06:08;-0.90;99.90
12634;DHT22;6382;48.614;8.880;2023-04-06T03:08:36;-0.90;99.90
12634;DHT22;6382;48.614;8.880;2023-04-06T03:11:02;-0.80;99.90
12634;DHT22;6382;48.614;8.880;2023-04-06T03:13:29;-0.80;99.90
12634;DHT22;6382;48.614;8.880;2023-04-06T03:15:56;-0.90;99.90
12634;DHT22;6382;48.614;8.880;2023-04-06T03:18:23;-1.00;99.90
12634;DHT22;6382;48.614;8.880;2023-04-06T03:20:51;-1.10;99.90
12634;DHT22;6382;48.614;8.880;2023-04-06T03:23:17;-1.10;99.90
12634;DHT22;6382;48.614;8.880;2023-04-06T03:25:47;-1.20;99.90
12634;DHT22;6382;48.614;8.880;2023-04-06T03:28:14;-1.20;99.90
12634;DHT22;6382;48.614;8.880;2023-04-06T03:30:41;-1.20;99.90
12634;DHT22;6382;48.614;8.880;2023-04-06T03:33:08;-1.20;99.90
12634;DHT22;6382;48.614;8.880;2023-04-06T03:35:34;-1.20;99.90
12634;DHT22;6382;48.614;8.880;2023-04-06T03:38:03;-1.20;99.90
12634;DHT22;6382;48.614;8.880;2023-04-06T03:40:30;-1.20;99.90
12634;DHT22;6382;48.614;8.880;2023-04-06T03:42:57;-1.20;99.90
12634;DHT22;6382;48.614;8.880;2023-04-06T03:45:24;-1.30;99.90
12634;DHT22;6382;48.614;8.880;2023-04-06T03:47:51;-1.30;99.90
12634;DHT22;6382;48.614;8.880;2023-04-06T03:50:18;-1.20;99.90
12634;DHT22;6382;48.614;8.880;2023-04-06T03:52:45;-1.30;99.90
12634;DHT22;6382;48.614;8.880;2023-04-06T03:55:12;-1.20;99.90
12634;DHT22;6382;48.614;8.880;2023-04-06T03:57:39;-1.10;99.90
12634;DHT22;6382;48.614;8.880;2023-04-06T04:00:06;-1.00;99.90
12634;DHT22;6382;48.614;8.880;2023-04-06T04:02:32;-1.10;99.90
12634;DHT22;6382;48.614;8.880;2023-04-06T04:04:59;-1.00;99.90
12634;DHT22;6382;48.614;8.880;2023-04-06T04:07:27;-1.10;99.90
12634;DHT22;6382;48.614;8.880;2023-04-06T04:09:54;1.30;99.90
12634;DHT22;6382;48.614;8.880;2023-04-06T04:12:21;-1.20;99.90
12634;DHT22;6382;48.614;8.880;2023-04-06T04:14:48;-1.20;99.90
12634;DHT22;6382;48.614;8.880;2023-04-06T04:17:15;-1.20;99.90
12634;DHT22;6382;48.614;8.880;2023-04-06T04:19:41;-1.00;99.90
12634;DHT22;6382;48.614;8.880;2023-04-06T04:22:08;-1.10;99.90
12634;DHT22;6382;48.614;8.880;2023-04-06T04:24:35;-1.10;99.90
12634;DHT22;6382;48.614;8.880;2023-04-06T04:27:02;-1.20;99.90
12634;DHT22;6382;48.614;8.880;2023-04-06T04:29:28;-1.40;99.90
12634;DHT22;6382;48.614;8.880;2023-04-06T04:31:55;-1.50;99.90
12634;DHT22;6382;48.614;8.880;2023-04-06T04:34:22;-1.60;99.90
12634;DHT22;6382;48.614;8.880;2023-04-06T04:36:52;-1.60;99.90
12634;DHT22;6382;48.614;8.880;2023-04-06T04:39:19;-1.70;99.90
12634;DHT22;6382;48.614;8.880;2023-04-06T04:41:45;-1.70;99.90
12634;DHT22;6382;48.614;8.880;2023-04-06T04:44:12;-1.70;99.90
12634;DHT22;6382;48.614;8.880;2023-04-06T04:46:39;-1.70;99.90
12634;DHT22;6382;48.614;8.880;2023-04-06T04:49:06;-1.70;99.90
12634;DHT22;6382;48.614;8.880;2023-04-06T04:51:33;-1.70;99.90
12634;DHT22;6382;48.614;8.880;2023-04-06T04:54:00;-1.80;99.90
12634;DHT22;6382;48.614;8.880;2023-04-06T04:56:27;-1.70;99.90
12634;DHT22;6382;48.614;8.880;2023-04-06T04:58:54;-1.70;99.90
12634;DHT22;6382;48.614;8.880;2023-04-06T05:01:20;-1.80;99.90
12634;DHT22;6382;48.614;8.880;2023-04-06T05:03:47;-1.60;99.90
12634;DHT22;6382;48.614;8.880;2023-04-06T05:06:14;-1.50;99.90
12634;DHT22;6382;48.614;8.880;2023-04-06T05:08:41;-1.30;99.90
12634;DHT22;6382;48.614;8.880;2023-04-06T05:11:08;-1.40;99.90
12634;DHT22;6382;48.614;8.880;2023-04-06T05:13:35;-1.40;99.90
12634;DHT22;6382;48.614;8.880;2023-04-06T05:16:02;-1.30;99.90
12634;DHT22;6382;48.614;8.880;2023-04-06T05:18:29;-1.40;99.90
12634;DHT22;6382;48.614;8.880;2023-04-06T05:20:56;-1.30;99.90
12634;DHT22;6382;48.614;8.880;2023-04-06T05:23:22;-1.40;99.90
12634;DHT22;6382;48.614;8.880;2023-04-06T05:25:49;-1.50;99.90
12634;DHT22;6382;48.614;8.880;2023-04-06T05:28:17;-1.50;99.90
12634;DHT22;6382;48.614;8.880;2023-04-06T05:30:44;-1.40;99.90
12634;DHT22;6382;48.614;8.880;2023-04-06T05:33:10;-1.30;99.90
12634;DHT22;6382;48.614;8.880;2023-04-06T05:35:37;-1.20;99.90
12634;DHT22;6382;48.614;8.880;2023-04-06T05:38:07;-1.10;99.90
12634;DHT22;6382;48.614;8.880;2023-04-06T05:40:33;0.90;99.90
12634;DHT22;6382;48.614;8.880;2023-04-06T05:43:00;-1.20;99.90
12634;DHT22;6382;48.614;8.880;2023-04-06T05:45:27;-1.10;99.90
12634;DHT22;6382;48.614;8.880;2023-04-06T05:47:54;-1.10;99.90
12634;DHT22;6382;48.614;8.880;2023-04-06T05:50:21;-1.20;99.90
12634;DHT22;6382;48.614;8.880;2023-04-06T05:52:48;-1.20;99.90
12634;DHT22;6382;48.614;8.880;2023-04-06T05:55:16;-1.10;99.90
12634;DHT22;6382;48.614;8.880;2023-04-06T05:57:42;-1.00;99.90
12634;DHT22;6382;48.614;8.880;2023-04-06T06:00:09;-1.00;99.90
12634;DHT22;6382;48.614;8.880;2023-04-06T06:02:36;-1.00;99.90
12634;DHT22;6382;48.614;8.880;2023-04-06T06:05:03;-0.80;99.90
12634;DHT22;6382;48.614;8.880;2023-04-06T06:07:31;-0.70;99.90
12634;DHT22;6382;48.614;8.880;2023-04-06T06:09:57;-0.50;99.90
12634;DHT22;6382;48.614;8.880;2023-04-06T06:12:24;-0.40;99.90
12634;DHT22;6382;48.614;8.880;2023-04-06T06:14:51;-0.40;99.90
12634;DHT22;6382;48.614;8.880;2023-04-06T06:17:18;-0.30;99.90
12634;DHT22;6382;48.614;8.880;2023-04-06T06:19:44;-0.20;99.90
12634;DHT22;6382;48.614;8.880;2023-04-06T06:22:11;-0.10;99.90
12634;DHT22;6382;48.614;8.880;2023-04-06T06:24:38;-0.10;99.90
12634;DHT22;6382;48.614;8.880;2023-04-06T06:27:07;0.00;99.90
12634;DHT22;6382;48.614;8.880;2023-04-06T06:29:34;0.10;99.90
12634;DHT22;6382;48.614;8.880;2023-04-06T06:32:01;0.20;99.90
12634;DHT22;6382;48.614;8.880;2023-04-06T06:34:27;0.30;99.90
12634;DHT22;6382;48.614;8.880;2023-04-06T06:36:54;0.30;99.90
12634;DHT22;6382;48.614;8.880;2023-04-06T06:39:21;0.40;99.90
12634;DHT22;6382;48.614;8.880;2023-04-06T06:41:48;0.50;99.90
12634;DHT22;6382;48.614;8.880;2023-04-06T06:44:15;0.60;99.90
12634;DHT22;6382;48.614;8.880;2023-04-06T06:46:44;0.60;99.90
12634;DHT22;6382;48.614;8.880;2023-04-06T06:49:11;0.70;99.90
12634;DHT22;6382;48.614;8.880;2023-04-06T06:51:38;0.90;99.90
12634;DHT22;6382;48.614;8.880;2023-04-06T06:54:06;0.90;99.90
12634;DHT22;6382;48.614;8.880;2023-04-06T06:56:33;1.00;99.90
12634;DHT22;6382;48.614;8.880;2023-04-06T06:59:02;1.10;99.90
12634;DHT22;6382;48.614;8.880;2023-04-06T07:01:34;1.10;99.90
12634;DHT22;6382;48.614;8.880;2023-04-06T07:04:01;1.20;99.90
12634;DHT22;6382;48.614;8.880;2023-04-06T07:06:28;3.90;99.90
12634;DHT22;6382;48.614;8.880;2023-04-06T07:08:54;1.40;99.90
12634;DHT22;6382;48.614;8.880;2023-04-06T07:11:21;1.50;99.90
12634;DHT22;6382;48.614;8.880;2023-04-06T07:13:48;1.50;99.90
12634;DHT22;6382;48.614;8.880;2023-04-06T07:16:15;1.60;99.90
12634;DHT22;6382;48.614;8.880;2023-04-06T07:18:42;1.70;99.90
12634;DHT22;6382;48.614;8.880;2023-04-06T07:21:09;1.80;99.90
12634;DHT22;6382;48.614;8.880;2023-04-06T07:23:35;1.90;99.90
12634;DHT22;6382;48.614;8.880;2023-04-06T07:26:02;2.00;99.90
12634;DHT22;6382;48.614;8.880;2023-04-06T07:28:29;2.10;99.90
12634;DHT22;6382;48.614;8.880;2023-04-06T07:30:55;2.10;99.90
12634;DHT22;6382;48.614;8.880;2023-04-06T07:33:22;2.20;99.90
12634;DHT22;6382;48.614;8.880;2023-04-06T07:35:48;2.40;99.90
12634;DHT22;6382;48.614;8.880;2023-04-06T07:38:16;2.40;99.90
12634;DHT22;6382;48.614;8.880;2023-04-06T07:40:42;2.50;99.90
12634;DHT22;6382;48.614;8.880;2023-04-06T07:43:09;2.50;99.90
12634;DHT22;6382;48.614;8.880;2023-04-06T07:45:36;2.60;99.90
12634;DHT22;6382;48.614;8.880;2023-04-06T07:48:03;2.70;99.90
12634;DHT22;6382;48.614;8.880;2023-04-06T07:50:30;4.90;99.90
12634;DHT22;6382;48.614;8.880;2023-04-06T07:52:56;2.90;99.90
12634;DHT22;6382;48.614;8.880;2023-04-06T07:55:24;3.00;99.90
12634;DHT22;6382;48.614;8.880;2023-04-06T07:57:51;3.10;99.90
12634;DHT22;6382;48.614;8.880;2023-04-06T08:00:18;3.20;99.90
12634;DHT22;6382;48.614;8.880;2023-04-06T08:02:44;3.30;99.90
12634;DHT22;6382;48.614;8.880;2023-04-06T08:05:11;3.40;99.90
12634;DHT22;6382;48.614;8.880;2023-04-06T08:07:38;3.50;99.90
12634;DHT22;6382;48.614;8.880;2023-04-06T08:10:05;3.60;99.90
12634;DHT22;6382;48.614;8.880;2023-04-06T08:12:32;3.60;99.90
12634;DHT22;6382;48.614;8.880;2023-04-06T08:14:58;3.80;99.90
12634;DHT22;6382;48.614;8.880;2023-04-06T08:17:26;6.50;99.90
12634;DHT22;6382;48.614;8.880;2023-04-06T08:19:56;3.80;99.90
12634;DHT22;6382;48.614;8.880;2023-04-06T08:22:23;3.90;99.90
12634;DHT22;6382;48.614;8.880;2023-04-06T08:24:50;4.10;99.90
12634;DHT22;6382;48.614;8.880;2023-04-06T08:27:17;4.20;99.90
12634;DHT22;6382;48.614;8.880;2023-04-06T08:29:44;4.30;99.90
12634;DHT22;6382;48.614;8.880;2023-04-06T08:32:11;4.40;99.90
12634;DHT22;6382;48.614;8.880;2023-04-06T08:34:37;4.60;99.90
12634;DHT22;6382;48.614;8.880;2023-04-06T08:37:04;4.70;99.90
12634;DHT22;6382;48.614;8.880;2023-04-06T08:39:31;4.70;99.90
12634;DHT22;6382;48.614;8.880;2023-04-06T08:42:00;4.80;99.90
12634;DHT22;6382;48.614;8.880;2023-04-06T08:44:30;4.90;99.90
12634;DHT22;6382;48.614;8.880;2023-04-06T08:46:58;4.90;99.90
12634;DHT22;6382;48.614;8.880;2023-04-06T08:49:25;5.10;99.90
12634;DHT22;6382;48.614;8.880;2023-04-06T08:51:52;3.70;99.90
12634;DHT22;6382;48.614;8.880;2023-04-06T08:54:20;5.30;99.90
12634;DHT22;6382;48.614;8.880;2023-04-06T08:56:47;5.40;99.90
12634;DHT22;6382;48.614;8.880;2023-04-06T08:59:13;5.50;99.90
12634;DHT22;6382;48.614;8.880;2023-04-06T09:01:41;5.90;99.90
12634;DHT22;6382;48.614;8.880;2023-04-06T09:04:09;5.70;99.90
12634;DHT22;6382;48.614;8.880;2023-04-06T09:06:38;5.70;99.90
12634;DHT22;6382;48.614;8.880;2023-04-06T09:09:07;5.90;99.90
12634;DHT22;6382;48.614;8.880;2023-04-06T09:11:44;6.10;99.90
12634;DHT22;6382;48.614;8.880;2023-04-06T09:14:10;6.10;99.90
12634;DHT22;6382;48.614;8.880;2023-04-06T09:16:44;6.20;99.90
12634;DHT22;6382;48.614;8.880;2023-04-06T09:19:11;6.30;99.90
12634;DHT22;6382;48.614;8.880;2023-04-06T09:21:38;6.40;99.90
12634;DHT22;6382;48.614;8.880;2023-04-06T09:24:07;6.50;99.90
12634;DHT22;6382;48.614;8.880;2023-04-06T09:26:43;6.50;99.90
12634;DHT22;6382;48.614;8.880;2023-04-06T09:29:10;6.60;99.90
12634;DHT22;6382;48.614;8.880;2023-04-06T09:31:48;6.70;99.90
12634;DHT22;6382;48.614;8.880;2023-04-06T09:34:22;6.80;99.90
12634;DHT22;6382;48.614;8.880;2023-04-06T09:36:49;6.80;99.90
12634;DHT22;6382;48.614;8.880;2023-04-06T09:39:19;6.80;99.90
12634;DHT22;6382;48.614;8.880;2023-04-06T09:41:49;6.90;99.90
12634;DHT22;6382;48.614;8.880;2023-04-06T09:44:16;6.90;99.90
12634;DHT22;6382;48.614;8.880;2023-04-06T09:46:43;7.00;99.90
12634;DHT22;6382;48.614;8.880;2023-04-06T09:49:27;7.20;99.90
12634;DHT22;6382;48.614;8.880;2023-04-06T09:51:55;7.50;99.90
12634;DHT22;6382;48.614;8.880;2023-04-06T09:54:23;7.70;99.90
12634;DHT22;6382;48.614;8.880;2023-04-06T10:02:08;8.30;99.90
12634;DHT22;6382;48.614;8.880;2023-04-06T10:04:43;8.40;99.90
12634;DHT22;6382;48.614;8.880;2023-04-06T10:07:15;8.40;99.90
12634;DHT22;6382;48.614;8.880;2023-04-06T10:09:44;8.50;99.90
12634;DHT22;6382;48.614;8.880;2023-04-06T10:12:11;8.60;99.90
12634;DHT22;6382;48.614;8.880;2023-04-06T10:14:39;8.80;99.90
12634;DHT22;6382;48.614;8.880;2023-04-06T10:17:07;8.90;99.90
12634;DHT22;6382;48.614;8.880;2023-04-06T10:19:39;9.00;99.90
12634;DHT22;6382;48.614;8.880;2023-04-06T10:22:06;9.10;99.90
12634;DHT22;6382;48.614;8.880;2023-04-06T10:24:35;9.20;99.90
12634;DHT22;6382;48.614;8.880;2023-04-06T10:27:02;9.30;99.90
12634;DHT22;6382;48.614;8.880;2023-04-06T10:29:42;9.40;99.90
12634;DHT22;6382;48.614;8.880;2023-04-06T10:32:09;9.50;99.90
12634;DHT22;6382;48.614;8.880;2023-04-06T10:34:36;9.60;99.90
12634;DHT22;6382;48.614;8.880;2023-04-06T10:37:16;9.50;99.90
12634;DHT22;6382;48.614;8.880;2023-04-06T10:39:46;9.60;99.90
12634;DHT22;6382;48.614;8.880;2023-04-06T10:42:13;9.70;99.90
12634;DHT22;6382;48.614;8.880;2023-04-06T10:44:43;9.60;98.70
12634;DHT22;6382;48.614;8.880;2023-04-06T10:47:15;9.60;99.40
12634;DHT22;6382;48.614;8.880;2023-04-06T10:49:45;9.40;97.30
12634;DHT22;6382;48.614;8.880;2023-04-06T10:52:11;10.40;96.60
12634;DHT22;6382;48.614;8.880;2023-04-06T10:54:41;9.20;97.70
12634;DHT22;6382;48.614;8.880;2023-04-06T10:57:07;9.40;99.50
12634;DHT22;6382;48.614;8.880;2023-04-06T10:59:34;9.40;98.40
12634;DHT22;6382;48.614;8.880;2023-04-06T11:02:01;9.60;98.30
12634;DHT22;6382;48.614;8.880;2023-04-06T11:04:28;9.70;98.60
12634;DHT22;6382;48.614;8.880;2023-04-06T11:06:55;9.70;98.40
12634;DHT22;6382;48.614;8.880;2023-04-06T11:09:22;10.50;96.60
12634;DHT22;6382;48.614;8.880;2023-04-06T11:11:49;9.40;97.50
12634;DHT22;6382;48.614;8.880;2023-04-06T11:14:16;9.30;97.70
12634;DHT22;6382;48.614;8.880;2023-04-06T11:16:42;9.20;97.00
12634;DHT22;6382;48.614;8.880;2023-04-06T11:19:12;9.20;94.70
12634;DHT22;6382;48.614;8.880;2023-04-06T11:21:43;9.20;94.90
12634;DHT22;6382;48.614;8.880;2023-04-06T11:24:17;9.10;94.90
12634;DHT22;6382;48.614;8.880;2023-04-06T11:26:47;9.10;94.20
12634;DHT22;6382;48.614;8.880;2023-04-06T11:29:16;9.10;93.70
12634;DHT22;6382;48.614;8.880;2023-04-06T11:31:47;9.20;95.00
12634;DHT22;6382;48.614;8.880;2023-04-06T11:34:21;9.30;92.40
12634;DHT22;6382;48.614;8.880;2023-04-06T11:36:48;9.30;91.90
12634;DHT22;6382;48.614;8.880;2023-04-06T11:39:19;9.40;90.80
12634;DHT22;6382;48.614;8.880;2023-04-06T11:41:47;9.40;90.30
12634;DHT22;6382;48.614;8.880;2023-04-06T11:44:14;9.40;91.40
12634;DHT22;6382;48.614;8.880;2023-04-06T11:46:40;9.60;93.10
12634;DHT22;6382;48.614;8.880;2023-04-06T11:49:07;9.80;95.50
12634;DHT22;6382;48.614;8.880;2023-04-06T11:51:37;9.90;95.70
12634;DHT22;6382;48.614;8.880;2023-04-06T11:54:04;9.90;93.10
12634;DHT22;6382;48.614;8.880;2023-04-06T11:56:31;9.80;92.60
12634;DHT22;6382;48.614;8.880;2023-04-06T11:58:58;9.80;92.40
12634;DHT22;6382;48.614;8.880;2023-04-06T12:01:26;9.90;92.10
12634;DHT22;6382;48.614;8.880;2023-04-06T12:03:53;9.90;92.00
12634;DHT22;6382;48.614;8.880;2023-04-06T12:06:20;9.90;91.10
12634;DHT22;6382;48.614;8.880;2023-04-06T12:08:47;9.80;90.80
12634;DHT22;6382;48.614;8.880;2023-04-06T12:11:14;9.90;91.30
12634;DHT22;6382;48.614;8.880;2023-04-06T12:13:40;11.10;92.10
12634;DHT22;6382;48.614;8.880;2023-04-06T12:16:07;10.10;91.20
12634;DHT22;6382;48.614;8.880;2023-04-06T12:18:34;10.40;90.80
12634;DHT22;6382;48.614;8.880;2023-04-06T12:21:00;10.60;91.10
12634;DHT22;6382;48.614;8.880;2023-04-06T12:23:27;10.70;90.10
12634;DHT22;6382;48.614;8.880;2023-04-06T12:25:54;10.80;90.20
12634;DHT22;6382;48.614;8.880;2023-04-06T12:28:21;10.70;90.80
12634;DHT22;6382;48.614;8.880;2023-04-06T12:30:50;10.60;90.30
12634;DHT22;6382;48.614;8.880;2023-04-06T12:33:17;10.60;91.70
12634;DHT22;6382;48.614;8.880;2023-04-06T12:35:44;10.60;91.90
12634;DHT22;6382;48.614;8.880;2023-04-06T12:38:11;10.50;90.50
12634;DHT22;6382;48.614;8.880;2023-04-06T12:40:38;10.60;92.80
12634;DHT22;6382;48.614;8.880;2023-04-06T12:43:05;10.60;92.00
12634;DHT22;6382;48.614;8.880;2023-04-06T12:45:32;10.70;90.80
12634;DHT22;6382;48.614;8.880;2023-04-06T12:47:58;10.90;92.40
12634;DHT22;6382;48.614;8.880;2023-04-06T12:50:25;11.00;94.20
12634;DHT22;6382;48.614;8.880;2023-04-06T12:52:52;11.10;93.40
12634;DHT22;6382;48.614;8.880;2023-04-06T12:55:19;11.10;93.30
12634;DHT22;6382;48.614;8.880;2023-04-06T12:57:47;13.50;93.40
12634;DHT22;6382;48.614;8.880;2023-04-06T13:00:21;11.60;92.40
12634;DHT22;6382;48.614;8.880;2023-04-06T13:02:48;11.10;93.20
12634;DHT22;6382;48.614;8.880;2023-04-06T13:05:15;11.00;94.20
12634;DHT22;6382;48.614;8.880;2023-04-06T13:07:45;10.90;91.20
12634;DHT22;6382;48.614;8.880;2023-04-06T13:10:13;11.00;90.30
12634;DHT22;6382;48.614;8.880;2023-04-06T13:12:40;11.00;94.40
12634;DHT22;6382;48.614;8.880;2023-04-06T13:15:06;11.20;94.50
12634;DHT22;6382;48.614;8.880;2023-04-06T13:17:33;11.30;94.90
12634;DHT22;6382;48.614;8.880;2023-04-06T13:20:00;11.40;95.60
12634;DHT22;6382;48.614;8.880;2023-04-06T13:22:27;13.50;93.60
12634;DHT22;6382;48.614;8.880;2023-04-06T13:24:53;11.60;94.90
12634;DHT22;6382;48.614;8.880;2023-04-06T13:27:21;12.10;93.30
12634;DHT22;6382;48.614;8.880;2023-04-06T13:29:47;11.70;94.00
12634;DHT22;6382;48.614;8.880;2023-04-06T13:32:14;11.70;90.60
12634;DHT22;6382;48.614;8.880;2023-04-06T13:34:41;11.70;90.90
12634;DHT22;6382;48.614;8.880;2023-04-06T13:37:12;11.80;92.70
12634;DHT22;6382;48.614;8.880;2023-04-06T13:39:38;12.90;92.80
12634;DHT22;6382;48.614;8.880;2023-04-06T13:42:06;11.30;91.50
12634;DHT22;6382;48.614;8.880;2023-04-06T13:44:33;11.30;91.20
12634;DHT22;6382;48.614;8.880;2023-04-06T13:47:00;13.30;91.80
12634;DHT22;6382;48.614;8.880;2023-04-06T13:49:26;12.90;92.60
12634;DHT22;6382;48.614;8.880;2023-04-06T13:51:53;11.50;91.80
12634;DHT22;6382;48.614;8.880;2023-04-06T13:54:20;12.90;92.10
12634;DHT22;6382;48.614;8.880;2023-04-06T13:56:47;11.70;94.90
12634;DHT22;6382;48.614;8.880;2023-04-06T13:59:13;11.80;92.20
12634;DHT22;6382;48.614;8.880;2023-04-06T14:01:42;11.70;92.70
12634;DHT22;6382;48.614;8.880;2023-04-06T14:04:09;11.70;94.70
12634;DHT22;6382;48.614;8.880;2023-04-06T14:06:36;11.70;91.30
12634;DHT22;6382;48.614;8.880;2023-04-06T14:09:03;11.50;90.90
12634;DHT22;6382;48.614;8.880;2023-04-06T14:11:31;11.50;90.40
12634;DHT22;6382;48.614;8.880;2023-04-06T14:13:58;11.40;90.50
12634;DHT22;6382;48.614;8.880;2023-04-06T14:16:25;11.60;91.70
12634;DHT22;6382;48.614;8.880;2023-04-06T14:18:53;12.40;94.20
12634;DHT22;6382;48.614;8.880;2023-04-06T14:21:19;11.60;94.40
12634;DHT22;6382;48.614;8.880;2023-04-06T14:23:46;11.50;94.50
12634;DHT22;6382;48.614;8.880;2023-04-06T14:26:13;11.60;91.20
12634;DHT22;6382;48.614;8.880;2023-04-06T14:28:40;11.50;90.40
12634;DHT22;6382;48.614;8.880;2023-04-06T14:31:11;11.50;91.30
12634;DHT22;6382;48.614;8.880;2023-04-06T14:33:39;11.50;93.80
12634;DHT22;6382;48.614;8.880;2023-04-06T14:36:07;13.20;94.40
12634;DHT22;6382;48.614;8.880;2023-04-06T14:38:34;11.60;91.60
12634;DHT22;6382;48.614;8.880;2023-04-06T14:41:01;11.60;90.60
12634;DHT22;6382;48.614;8.880;2023-04-06T14:43:27;12.80;91.30
12634;DHT22;6382;48.614;8.880;2023-04-06T14:45:54;11.70;90.50
12634;DHT22;6382;48.614;8.880;2023-04-06T14:48:21;11.70;90.40
12634;DHT22;6382;48.614;8.880;2023-04-06T14:50:51;11.70;91.60
12634;DHT22;6382;48.614;8.880;2023-04-06T14:53:19;11.60;91.80
12634;DHT22;6382;48.614;8.880;2023-04-06T14:55:46;11.50;92.50
12634;DHT22;6382;48.614;8.880;2023-04-06T14:58:12;12.40;91.90
12634;DHT22;6382;48.614;8.880;2023-04-06T15:00:39;11.40;92.00
12634;DHT22;6382;48.614;8.880;2023-04-06T15:03:06;12.30;91.90
12634;DHT22;6382;48.614;8.880;2023-04-06T15:05:34;11.40;91.60
12634;DHT22;6382;48.614;8.880;2023-04-06T15:08:01;12.30;92.20
12634;DHT22;6382;48.614;8.880;2023-04-06T15:10:28;12.20;91.80
12634;DHT22;6382;48.614;8.880;2023-04-06T15:12:54;12.20;93.10
12634;DHT22;6382;48.614;8.880;2023-04-06T15:15:21;11.20;91.70
12634;DHT22;6382;48.614;8.880;2023-04-06T15:17:48;12.90;94.40
12634;DHT22;6382;48.614;8.880;2023-04-06T15:20:14;11.20;94.00
12634;DHT22;6382;48.614;8.880;2023-04-06T15:22:41;11.20;93.50
12634;DHT22;6382;48.614;8.880;2023-04-06T15:25:08;13.40;94.20
12634;DHT22;6382;48.614;8.880;2023-04-06T15:27:35;11.20;91.90
12634;DHT22;6382;48.614;8.880;2023-04-06T15:30:01;11.20;91.50
12634;DHT22;6382;48.614;8.880;2023-04-06T15:32:28;11.20;92.20
12634;DHT22;6382;48.614;8.880;2023-04-06T15:34:58;11.40;91.30
12634;DHT22;6382;48.614;8.880;2023-04-06T15:37:25;11.20;91.70
12634;DHT22;6382;48.614;8.880;2023-04-06T15:39:52;11.20;93.10
12634;DHT22;6382;48.614;8.880;2023-04-06T15:42:19;12.40;93.20
12634;DHT22;6382;48.614;8.880;2023-04-06T15:44:46;11.10;92.90
12634;DHT22;6382;48.614;8.880;2023-04-06T15:47:13;13.50;92.90
12634;DHT22;6382;48.614;8.880;2023-04-06T15:49:39;11.00;92.30
12634;DHT22;6382;48.614;8.880;2023-04-06T15:52:06;11.00;93.00
12634;DHT22;6382;48.614;8.880;2023-04-06T15:54:33;11.10;94.20
12634;DHT22;6382;48.614;8.880;2023-04-06T15:57:01;11.10;92.90
12634;DHT22;6382;48.614;8.880;2023-04-06T15:59:28;11.30;92.40